Terminal Aerodrome Forecast
Issued by NWS

Home | Current Version | Previous Version | Text Only | Print | Product List | Glossary On
Versions: 1 2 3 4 5 6 7 8 9 10 11 12 13 14 15
790
FTPA31 PHFO 231727
TAFHOG
TAF
PHOG 231727Z 2318/2418 05008KT P6SM FEW050 BKN250
     FM232000 06016G23KT P6SM FEW035 SCT050
     FM240600 06010KT P6SM FEW035 SCT050
      AMD LTD TO VIS AND WIND 2409/2416=

USA.gov is the U.S. government's official web portal to all federal, state and local government web resources and services.